Time;durP1;ratioP1;P1;durP2;ratioP2;P2;SDS_P1;SDS_P2;PMS_P1;PMS_P2;Temp;Humidity;BMP_temperature;BMP_pressure;BME280_temperature;BME280_humidity;BME280_pressure;Samples;Min_cycle;Max_cycle;Signal;HPM_P1;HPM_P2
2021/03/06 00:00:41;;;;;;;4.80;2.13;;;1.30;1.00;;;;;;5157830;27;20699;-64
2021/03/06 00:03:07;;;;;;;12.37;2.30;;;1.30;1.00;;;;;;5157415;27;20184;-65
2021/03/06 00:05:32;;;;;;;5.63;1.80;;;1.40;15.20;;;;;;5157637;27;20217;-60
2021/03/06 00:07:58;;;;;;;4.30;1.80;;;1.40;22.40;;;;;;5157540;27;20177;-65
2021/03/06 00:10:24;;;;;;;2.60;1.60;;;1.40;1.00;;;;;;5157436;27;20170;-65
2021/03/06 00:12:50;;;;;;;2.50;1.67;;;1.20;1.00;;;;;;5157126;27;20176;-66
2021/03/06 00:15:23;;;;;;;3.45;2.05;;;1.40;99.90;;;;;;5156757;27;20217;-64
2021/03/06 00:17:48;;;;;;;7.93;1.85;;;1.30;99.90;;;;;;5157055;27;20184;-62
2021/03/06 00:20:14;;;;;;;8.33;1.73;;;1.30;99.90;;;;;;5157788;27;20177;-65
2021/03/06 00:22:40;;;;;;;3.83;1.97;;;1.40;99.90;;;;;;5156368;27;20181;-65
2021/03/06 00:25:08;;;;;;;3.70;3.07;;;1.20;99.90;;;;;;5155426;27;20209;-63
2021/03/06 00:27:34;;;;;;;4.95;3.95;;;1.10;1.00;;;;;;5156131;27;20212;-64
2021/03/06 00:30:00;;;;;;;8.45;3.58;;;1.30;1.00;;;;;;5158533;27;20172;-65
2021/03/06 00:32:26;;;;;;;5.30;1.70;;;1.30;1.00;;;;;;5161562;27;20486;-65
2021/03/06 00:34:51;;;;;;;6.13;1.73;;;1.20;53.90;;;;;;5161041;27;20473;-65
2021/03/06 00:37:18;;;;;;;4.43;1.67;;;1.20;99.90;;;;;;5160633;27;20193;-66
2021/03/06 00:39:44;;;;;;;4.60;1.67;;;1.30;99.90;;;;;;5161141;27;20182;-66
2021/03/06 00:42:12;;;;;;;5.43;1.50;;;1.20;99.90;;;;;;5160851;27;20479;-65
2021/03/06 00:44:38;;;;;;;6.18;1.88;;;1.10;99.90;;;;;;5160750;27;20182;-64
2021/03/06 00:47:03;;;;;;;6.00;1.30;;;1.10;99.90;;;;;;5161142;27;20189;-65
2021/03/06 00:49:29;;;;;;;6.83;1.80;;;1.10;1.00;;;;;;5161199;27;20182;-64
2021/03/06 00:51:55;;;;;;;2.70;1.40;;;1.10;1.00;;;;;;5160922;27;20178;-65
2021/03/06 00:54:20;;;;;;;5.10;2.07;;;1.10;1.00;;;;;;5160659;27;20174;-65
2021/03/06 00:56:46;;;;;;;2.10;1.10;;;1.10;1.00;;;;;;5160002;27;20190;-65
2021/03/06 00:59:11;;;;;;;4.10;1.67;;;1.00;1.00;;;;;;5161052;27;20177;-65
2021/03/06 01:01:40;;;;;;;6.80;1.90;;;0.90;1.00;;;;;;5161002;27;20182;-65
2021/03/06 01:04:05;;;;;;;1.20;1.10;;;0.90;71.30;;;;;;5160890;27;20242;-64
2021/03/06 01:06:31;;;;;;;2.93;1.40;;;1.00;99.90;;;;;;5160549;27;20240;-65
2021/03/06 01:08:57;;;;;;;3.27;1.53;;;0.90;99.90;;;;;;5161218;27;20619;-65
2021/03/06 01:11:23;;;;;;;4.50;1.60;;;1.00;99.90;;;;;;5160794;27;20170;-64
2021/03/06 01:13:48;;;;;;;2.67;2.03;;;1.00;99.90;;;;;;5160722;27;20609;-66
2021/03/06 01:16:14;;;;;;;3.17;1.50;;;1.00;99.90;;;;;;5160459;27;20174;-65
2021/03/06 01:18:39;;;;;;;1.70;1.33;;;1.00;99.90;;;;;;5161551;27;20180;-65
2021/03/06 01:21:05;;;;;;;1.43;1.23;;;1.00;99.90;;;;;;5160707;27;20257;-66
2021/03/06 01:23:31;;;;;;;3.40;1.40;;;1.00;99.90;;;;;;5160252;27;20207;-65
2021/03/06 01:25:56;;;;;;;11.77;2.17;;;1.00;99.90;;;;;;5160133;27;20209;-65
2021/03/06 01:28:22;;;;;;;3.13;0.93;;;1.00;99.90;;;;;;5160366;27;20174;-65
2021/03/06 01:30:47;;;;;;;3.03;1.33;;;1.00;99.90;;;;;;5160685;27;20600;-64
2021/03/06 01:33:14;;;;;;;2.10;1.00;;;0.90;99.90;;;;;;5160110;27;20182;-64
2021/03/06 01:35:39;;;;;;;6.03;1.33;;;1.00;99.90;;;;;;5160270;27;20178;-64
2021/03/06 01:38:05;;;;;;;4.77;1.70;;;1.00;99.90;;;;;;5160225;27;20511;-62
2021/03/06 01:40:36;;;;;;;2.60;1.13;;;0.90;99.90;;;;;;5158900;27;20293;-62
2021/03/06 01:43:05;;;;;;;5.75;1.65;;;1.00;99.90;;;;;;5160398;27;20642;-62
2021/03/06 01:45:31;;;;;;;2.15;1.33;;;1.00;99.90;;;;;;5160111;27;20253;-65
2021/03/06 01:47:56;;;;;;;5.90;1.43;;;1.00;99.90;;;;;;5160682;27;20177;-62
2021/03/06 01:50:28;;;;;;;3.37;2.10;;;1.00;99.90;;;;;;5160522;27;20170;-61
2021/03/06 01:52:55;;;;;;;2.65;1.30;;;1.00;99.90;;;;;;5159568;27;20177;-61
2021/03/06 01:55:26;;;;;;;4.40;2.10;;;0.90;99.90;;;;;;5159881;27;20515;-63
2021/03/06 01:57:52;;;;;;;3.92;1.13;;;0.90;99.90;;;;;;5159342;27;20186;-62
2021/03/06 02:00:23;;;;;;;3.70;1.52;;;1.00;99.90;;;;;;5160007;27;20527;-62
2021/03/06 02:02:49;;;;;;;2.65;0.98;;;0.90;99.90;;;;;;5160328;27;20166;-64
2021/03/06 02:05:16;;;;;;;1.83;1.50;;;0.90;99.90;;;;;;5159954;27;20235;-62
2021/03/06 02:07:42;;;;;;;6.93;1.80;;;1.10;1.00;;;;;;5160075;27;20540;-62
2021/03/06 02:10:09;;;;;;;5.97;1.27;;;1.10;1.00;;;;;;5159972;27;20174;-64
2021/03/06 02:12:59;;;;;;;1.02;0.93;;;1.20;1.00;;;;;;5160368;27;20170;-60
2021/03/06 02:15:33;;;;;;;8.40;1.60;;;1.20;99.90;;;;;;5160383;27;20196;-60
2021/03/06 02:18:06;;;;;;;1.48;0.88;;;1.10;99.90;;;;;;5160123;27;20210;-61
2021/03/06 02:20:50;;;;;;;4.88;1.52;;;1.10;99.90;;;;;;5160026;27;20192;-62
2021/03/06 02:23:43;;;;;;;3.55;1.55;;;1.20;99.90;;;;;;5158374;27;20193;-61
2021/03/06 02:26:14;;;;;;;2.00;1.02;;;1.20;99.90;;;;;;5160012;27;20634;-62
2021/03/06 02:28:58;;;;;;;1.02;0.80;;;1.20;99.90;;;;;;5160128;27;20186;-66
2021/03/06 02:31:25;;;;;;;2.03;1.17;;;1.20;99.90;;;;;;5159850;27;20278;-62
2021/03/06 02:34:01;;;;;;;6.88;1.55;;;1.40;1.00;;;;;;5159440;27;20181;-63
2021/03/06 02:36:27;;;;;;;0.95;0.88;;;1.40;99.90;;;;;;5159342;27;20614;-62
2021/03/06 02:38:58;;;;;;;7.97;1.40;;;1.40;99.90;;;;;;5158280;27;20217;-63
2021/03/06 02:41:26;;;;;;;3.00;1.30;;;1.30;99.90;;;;;;5160082;27;20173;-63
2021/03/06 02:43:52;;;;;;;6.88;1.60;;;1.30;99.90;;;;;;5159687;27;20174;-62
2021/03/06 02:46:22;;;;;;;4.07;1.20;;;1.40;99.90;;;;;;5159104;27;20253;-64
2021/03/06 02:48:49;;;;;;;2.67;1.20;;;1.40;99.90;;;;;;5159143;27;20174;-65
2021/03/06 02:51:15;;;;;;;2.70;1.20;;;1.40;99.90;;;;;;5158925;27;20193;-64
2021/03/06 02:53:40;;;;;;;7.33;1.10;;;1.40;99.90;;;;;;5158124;27;20170;-65
2021/03/06 02:56:06;;;;;;;1.50;1.10;;;1.40;99.90;;;;;;5158986;27;20174;-66
2021/03/06 02:58:44;;;;;;;3.43;1.50;;;1.40;99.90;;;;;;5158974;27;20185;-64
2021/03/06 03:01:21;;;;;;;2.78;0.95;;;1.40;99.90;;;;;;5156832;27;20426;-62
2021/03/06 03:03:59;;;;;;;7.75;1.33;;;1.40;99.90;;;;;;5156979;27;20209;-62
2021/03/06 03:06:48;;;;;;;6.10;1.52;;;1.50;99.90;;;;;;5156685;27;20603;-62
2021/03/06 03:09:21;;;;;;;2.13;1.50;;;1.50;99.90;;;;;;5156045;27;20577;-62
2021/03/06 03:11:58;;;;;;;10.32;1.70;;;1.50;99.90;;;;;;5157074;27;20199;-63
2021/03/06 03:14:42;;;;;;;2.88;1.10;;;1.50;99.90;;;;;;5155133;27;20178;-63
2021/03/06 03:17:17;;;;;;;2.05;1.60;;;1.60;99.90;;;;;;5156717;27;20170;-63
2021/03/06 03:20:02;;;;;;;7.35;1.55;;;1.60;99.90;;;;;;5157074;27;20181;-64
2021/03/06 03:22:33;;;;;;;3.30;1.70;;;1.50;99.90;;;;;;5158221;27;20193;-63
2021/03/06 03:25:00;;;;;;;3.40;1.45;;;1.70;99.90;;;;;;5158936;27;20560;-62
2021/03/06 03:27:28;;;;;;;6.75;1.55;;;1.70;99.90;;;;;;5159839;27;20170;-64
2021/03/06 03:29:55;;;;;;;1.17;0.90;;;1.70;99.90;;;;;;5159875;27;20316;-62
2021/03/06 03:32:23;;;;;;;2.50;1.40;;;1.70;99.90;;;;;;5159105;27;20504;-62
2021/03/06 03:34:50;;;;;;;2.95;0.90;;;1.70;99.90;;;;;;5158773;27;20182;-64
2021/03/06 03:37:16;;;;;;;4.63;1.40;;;1.70;99.90;;;;;;5156885;27;20181;-62
2021/03/06 03:39:42;;;;;;;2.80;1.25;;;1.80;99.90;;;;;;5156809;27;20321;-64
2021/03/06 03:42:09;;;;;;;1.80;1.00;;;2.00;99.90;;;;;;5156221;27;20618;-62
2021/03/06 03:44:35;;;;;;;3.90;1.70;;;2.10;99.90;;;;;;5156296;27;20556;-62
2021/03/06 03:47:02;;;;;;;8.05;1.30;;;2.10;99.90;;;;;;5156292;27;20170;-62
2021/03/06 03:49:28;;;;;;;3.90;1.10;;;2.10;99.90;;;;;;5156748;27;20182;-64
2021/03/06 03:51:54;;;;;;;3.92;1.40;;;2.10;99.90;;;;;;5157785;27;20209;-63
2021/03/06 03:54:21;;;;;;;1.38;1.02;;;2.10;99.90;;;;;;5156648;27;20210;-63
2021/03/06 03:56:46;;;;;;;2.78;1.00;;;2.20;99.90;;;;;;5156429;27;20199;-61
2021/03/06 03:59:12;;;;;;;2.63;1.50;;;2.30;99.90;;;;;;5156163;27;20209;-63
2021/03/06 04:01:45;;;;;;;3.20;1.30;;;2.30;99.90;;;;;;5159123;27;20246;-63
2021/03/06 04:04:28;;;;;;;6.35;2.28;;;2.30;99.90;;;;;;5156780;27;20177;-63
2021/03/06 04:06:54;;;;;;;6.07;2.17;;;2.30;99.90;;;;;;5157788;27;20659;-63
2021/03/06 04:09:23;;;;;;;5.53;3.78;;;2.30;99.90;;;;;;5157696;27;20205;-61
2021/03/06 04:11:50;;;;;;;2.92;1.23;;;2.40;99.90;;;;;;5156272;27;20269;-62
2021/03/06 04:14:15;;;;;;;1.58;1.10;;;2.50;99.90;;;;;;5156196;27;20271;-64
2021/03/06 04:16:41;;;;;;;4.73;1.67;;;2.60;99.90;;;;;;5157150;27;20205;-64
2021/03/06 04:19:07;;;;;;;3.57;1.00;;;2.50;99.90;;;;;;5159475;27;20186;-64
2021/03/06 04:21:32;;;;;;;5.70;1.60;;;2.40;99.90;;;;;;5158222;27;20189;-63
2021/03/06 04:23:58;;;;;;;2.93;1.43;;;2.40;99.90;;;;;;5158077;27;20459;-63
2021/03/06 04:26:24;;;;;;;2.17;1.23;;;2.40;1.00;;;;;;5157735;27;20198;-61
2021/03/06 04:28:51;;;;;;;2.40;1.30;;;2.40;1.00;;;;;;5157316;27;20419;-60
2021/03/06 04:31:16;;;;;;;5.13;1.95;;;2.40;1.00;;;;;;5157247;27;20499;-61
2021/03/06 04:33:42;;;;;;;3.60;1.93;;;2.30;1.00;;;;;;5157643;27;20212;-61
2021/03/06 04:36:08;;;;;;;6.20;1.60;;;2.30;1.00;;;;;;5157392;27;20424;-61
2021/03/06 04:38:34;;;;;;;4.00;1.97;;;2.40;1.00;;;;;;5155676;27;20847;-60
2021/03/06 04:41:00;;;;;;;3.03;1.80;;;2.40;1.00;;;;;;5157394;27;20439;-61
2021/03/06 04:43:25;;;;;;;3.30;1.40;;;2.50;1.00;;;;;;5157017;27;20236;-62
2021/03/06 04:45:51;;;;;;;3.33;1.77;;;2.60;1.00;;;;;;5157232;27;20466;-62
2021/03/06 04:48:16;;;;;;;3.37;1.50;;;2.70;1.00;;;;;;5156970;27;20182;-61
2021/03/06 04:50:42;;;;;;;1.77;1.53;;;2.70;1.00;;;;;;5153989;27;20342;-62
2021/03/06 04:53:08;;;;;;;4.23;1.37;;;2.70;1.00;;;;;;5155013;27;20527;-62
2021/03/06 04:55:33;;;;;;;9.80;1.60;;;2.80;1.00;;;;;;5157102;27;20174;-64
2021/03/06 04:57:59;;;;;;;1.77;1.63;;;2.70;1.00;;;;;;5156542;27;20177;-65
2021/03/06 05:00:25;;;;;;;2.27;1.70;;;2.70;1.00;;;;;;5156362;27;20178;-63
2021/03/06 05:02:52;;;;;;;2.35;2.10;;;2.60;1.00;;;;;;5157162;27;20924;-62
2021/03/06 05:05:17;;;;;;;4.53;2.13;;;2.60;1.00;;;;;;5156868;27;20266;-62
2021/03/06 05:07:43;;;;;;;1.90;1.60;;;2.40;28.40;;;;;;5157484;27;20174;-62
2021/03/06 05:10:09;;;;;;;6.87;2.30;;;2.40;65.60;;;;;;5157695;27;20209;-62
2021/03/06 05:12:35;;;;;;;3.35;1.95;;;2.40;96.00;;;;;;5157002;27;20178;-62
2021/03/06 05:15:01;;;;;;;5.17;2.20;;;2.40;99.30;;;;;;5156807;27;20564;-65
2021/03/06 05:17:27;;;;;;;12.00;2.73;;;2.40;99.90;;;;;;5161328;27;20415;-63
2021/03/06 05:19:53;;;;;;;12.80;1.80;;;2.30;99.90;;;;;;5160744;27;20506;-63
2021/03/06 05:22:18;;;;;;;4.60;2.47;;;2.30;99.90;;;;;;5160435;27;20246;-63
2021/03/06 05:24:45;;;;;;;4.97;1.90;;;2.40;99.90;;;;;;5160521;27;20205;-62
2021/03/06 05:27:11;;;;;;;4.70;2.67;;;2.40;99.90;;;;;;5160363;27;20415;-63
2021/03/06 05:29:37;;;;;;;5.37;2.03;;;2.40;99.90;;;;;;5160605;27;20184;-63
2021/03/06 05:32:06;;;;;;;7.10;2.10;;;2.40;99.90;;;;;;5160318;27;20517;-63
2021/03/06 05:34:33;;;;;;;8.70;4.22;;;2.40;99.90;;;;;;5159858;27;20332;-63
2021/03/06 05:37:02;;;;;;;3.10;2.42;;;2.40;99.90;;;;;;5159461;27;20214;-65
2021/03/06 05:39:29;;;;;;;3.80;1.92;;;2.50;99.90;;;;;;5159531;27;20193;-64
2021/03/06 05:41:55;;;;;;;7.60;2.80;;;2.40;99.90;;;;;;5159706;27;20174;-67
2021/03/06 05:44:22;;;;;;;7.70;1.90;;;2.50;99.90;;;;;;5159597;27;20205;-63
2021/03/06 05:46:48;;;;;;;4.63;2.40;;;2.50;99.90;;;;;;5159981;27;20202;-63
2021/03/06 05:49:14;;;;;;;8.73;2.95;;;2.60;99.90;;;;;;5158712;27;20185;-63
2021/03/06 05:51:41;;;;;;;4.95;2.13;;;2.60;99.90;;;;;;5159223;27;20173;-62
2021/03/06 05:54:16;;;;;;;5.72;2.50;;;2.60;99.90;;;;;;5159194;27;20250;-63
2021/03/06 05:57:03;;;;;;;5.10;2.88;;;2.50;99.90;;;;;;5160513;27;20203;-63
2021/03/06 05:59:29;;;;;;;5.43;2.85;;;2.60;99.90;;;;;;5159157;27;20186;-63
2021/03/06 06:01:55;;;;;;;6.10;2.80;;;2.70;99.90;;;;;;5159393;27;20273;-63
2021/03/06 06:04:28;;;;;;;5.97;1.98;;;2.70;99.90;;;;;;5159415;27;20419;-63
2021/03/06 06:07:01;;;;;;;9.18;2.95;;;2.70;99.90;;;;;;5161763;27;20236;-62
2021/03/06 06:09:27;;;;;;;4.40;2.90;;;2.70;99.90;;;;;;5160391;27;20182;-64
2021/03/06 06:11:55;;;;;;;12.13;3.57;;;2.70;99.90;;;;;;5158877;27;20188;-64
2021/03/06 06:14:21;;;;;;;7.70;2.70;;;2.80;99.90;;;;;;5159693;27;20412;-62
2021/03/06 06:16:50;;;;;;;11.57;3.40;;;2.80;99.90;;;;;;5159935;27;20174;-64
2021/03/06 06:19:19;;;;;;;6.50;3.15;;;2.70;99.90;;;;;;5160686;27;20185;-65
2021/03/06 06:21:51;;;;;;;4.47;3.40;;;2.70;99.90;;;;;;5160736;27;20166;-63
2021/03/06 06:24:24;;;;;;;8.68;3.45;;;2.60;99.90;;;;;;5150664;27;20214;-62
2021/03/06 06:26:58;;;;;;;9.70;3.53;;;2.70;99.90;;;;;;5139858;27;20202;-63
2021/03/06 06:35:46;;;;;;;6.63;3.45;;;3.10;99.90;;;;;;5136754;27;20233;-64
2021/03/06 06:38:14;;;;;;;5.80;2.57;;;3.00;99.90;;;;;;5137967;27;20187;-61
2021/03/06 06:40:40;;;;;;;9.68;3.17;;;3.00;99.90;;;;;;5138006;27;20186;-63
2021/03/06 06:43:21;;;;;;;5.28;3.90;;;3.00;99.90;;;;;;5137140;27;20178;-64
2021/03/06 06:45:47;;;;;;;6.15;4.15;;;3.10;99.90;;;;;;5138314;27;20217;-64
2021/03/06 06:48:13;;;;;;;6.03;3.23;;;3.20;99.90;;;;;;5137995;27;20187;-65
2021/03/06 06:50:39;;;;;;;7.90;3.30;;;3.30;99.90;;;;;;5138350;27;20424;-64
2021/03/06 06:53:04;;;;;;;10.30;3.77;;;3.30;99.90;;;;;;5138471;27;20424;-65
2021/03/06 06:55:41;;;;;;;12.63;3.43;;;3.30;99.90;;;;;;5138527;27;20219;-65
2021/03/06 06:58:07;;;;;;;7.78;3.40;;;3.30;98.90;;;;;;5137463;27;20238;-65
2021/03/06 07:00:34;;;;;;;8.87;3.00;;;3.30;99.60;;;;;;5137223;27;20273;-65
2021/03/06 07:03:05;;;;;;;4.22;2.75;;;3.30;99.90;;;;;;5137544;27;20190;-66
2021/03/06 07:05:33;;;;;;;6.55;3.58;;;3.40;99.90;;;;;;5137834;27;20206;-65
2021/03/06 07:08:00;;;;;;;6.65;3.20;;;3.50;99.90;;;;;;5138163;27;20637;-65
2021/03/06 07:10:36;;;;;;;8.05;4.10;;;3.60;99.90;;;;;;5137444;27;20167;-62
2021/03/06 07:13:05;;;;;;;8.40;4.50;;;3.80;99.90;;;;;;5137503;27;20155;-65
2021/03/06 07:15:32;;;;;;;8.20;3.15;;;4.00;89.10;;;;;;5137324;27;20190;-65
2021/03/06 07:18:01;;;;;;;11.32;4.22;;;3.90;50.90;;;;;;5136087;27;20186;-63
2021/03/06 07:20:34;;;;;;;4.90;2.85;;;4.00;42.60;;;;;;5136531;27;20182;-64
2021/03/06 07:23:21;;;;;;;7.60;3.97;;;4.00;21.00;;;;;;5134756;27;20273;-65
2021/03/06 07:26:12;;;;;;;6.80;4.07;;;4.20;58.40;;;;;;5134425;27;20227;-62
2021/03/06 07:28:38;;;;;;;7.70;4.45;;;4.40;20.40;;;;;;5133902;27;20195;-62
2021/03/06 07:31:04;;;;;;;7.13;2.67;;;4.60;1.00;;;;;;5136799;27;20607;-62
2021/03/06 07:33:30;;;;;;;2.87;2.63;;;4.70;1.00;;;;;;5137354;27;20178;-63
2021/03/06 07:35:56;;;;;;;7.63;3.40;;;4.80;1.00;;;;;;5135991;27;20428;-65
2021/03/06 07:38:22;;;;;;;8.15;3.00;;;4.80;1.00;;;;;;5136241;27;20269;-65
2021/03/06 07:41:19;;;;;;;3.72;2.67;;;4.80;1.00;;;;;;5137263;27;20179;-68
2021/03/06 07:43:53;;;;;;;7.78;3.50;;;5.00;1.00;;;;;;5135610;27;20213;-65
2021/03/06 07:46:19;;;;;;;8.32;3.63;;;5.00;1.00;;;;;;5135820;27;20561;-65
2021/03/06 07:48:51;;;;;;;4.50;2.13;;;4.90;1.00;;;;;;5137282;27;20537;-63
2021/03/06 07:51:19;;;;;;;6.20;2.88;;;4.90;1.00;;;;;;5137136;27;20247;-64
2021/03/06 07:53:51;;;;;;;6.22;2.45;;;4.70;1.00;;;;;;5136688;27;20194;-67
2021/03/06 07:56:17;;;;;;;7.28;2.88;;;4.70;1.00;;;;;;5135205;27;20746;-64
2021/03/06 07:58:53;;;;;;;6.30;2.77;;;4.70;1.00;;;;;;5136125;27;20221;-62
2021/03/06 08:01:28;;;;;;;7.70;3.30;;;4.70;1.00;;;;;;5137904;27;20200;-64
2021/03/06 08:03:54;;;;;;;11.15;2.53;;;4.70;1.00;;;;;;5137039;27;20179;-63
2021/03/06 08:06:24;;;;;;;4.90;2.57;;;4.80;1.00;;;;;;5136839;27;20212;-66
2021/03/06 08:08:57;;;;;;;8.70;2.92;;;4.80;1.00;;;;;;5136244;27;20497;-65
2021/03/06 08:11:34;;;;;;;9.20;2.80;;;4.70;1.00;;;;;;5136628;28;20174;-65
2021/03/06 08:14:05;;;;;;;8.40;2.88;;;4.60;1.00;;;;;;5130674;28;20185;-66
2021/03/06 08:16:31;;;;;;;2.85;2.08;;;4.70;1.00;;;;;;5135116;28;20593;-66
2021/03/06 08:19:16;;;;;;;4.40;2.78;;;4.70;1.00;;;;;;5120860;28;20175;-68
2021/03/06 08:21:49;;;;;;;4.05;2.90;;;4.60;1.00;;;;;;5116757;28;20608;-64
2021/03/06 08:24:21;;;;;;;7.28;3.25;;;4.80;5.20;;;;;;5135793;28;20182;-68
2021/03/06 08:27:12;;;;;;;9.85;3.63;;;4.80;1.00;;;;;;5134220;28;20209;-66
2021/03/06 08:29:39;;;;;;;6.55;3.72;;;4.80;18.40;;;;;;5135113;28;20179;-65
2021/03/06 08:32:17;;;;;;;6.25;2.75;;;4.80;24.80;;;;;;5119477;28;20175;-64
2021/03/06 08:34:46;;;;;;;5.13;3.03;;;4.80;29.40;;;;;;5115711;28;20187;-69
2021/03/06 08:37:15;;;;;;;11.98;3.25;;;4.70;47.40;;;;;;5116043;28;20172;-65
2021/03/06 08:39:51;;;;;;;6.82;3.28;;;4.70;92.90;;;;;;5114688;28;20312;-66
2021/03/06 08:43:06;;;;;;;6.93;3.22;;;4.70;99.90;;;;;;5115129;28;20258;-66
2021/03/06 08:45:33;;;;;;;8.30;2.75;;;4.70;99.90;;;;;;5103208;28;20294;-67
2021/03/06 08:48:03;;;;;;;5.53;2.53;;;4.90;99.90;;;;;;5122364;28;20208;-64
2021/03/06 08:50:35;;;;;;;7.45;3.30;;;5.00;99.90;;;;;;5137551;27;20183;-63
2021/03/06 08:53:11;;;;;;;8.07;3.20;;;5.20;99.90;;;;;;5140606;27;20279;-64
2021/03/06 08:55:42;;;;;;;7.95;3.15;;;5.20;81.20;;;;;;5139752;27;20185;-67
2021/03/06 08:58:10;;;;;;;8.25;2.80;;;5.20;67.00;;;;;;5139800;27;20623;-65
2021/03/06 09:00:42;;;;;;;5.55;3.85;;;5.20;58.20;;;;;;5140147;27;20186;-65
2021/03/06 09:03:19;;;;;;;12.48;5.65;;;5.20;69.50;;;;;;5139637;27;20237;-67
2021/03/06 09:05:48;;;;;;;8.35;3.85;;;5.40;97.50;;;;;;5139307;27;20301;-64
2021/03/06 09:08:19;;;;;;;5.63;3.15;;;5.40;93.80;;;;;;5139053;27;20171;-65
2021/03/06 09:10:52;;;;;;;3.08;2.70;;;5.50;84.40;;;;;;5139521;27;20190;-65
2021/03/06 09:13:31;;;;;;;5.57;3.50;;;5.40;47.50;;;;;;5139724;27;20633;-67
2021/03/06 09:16:01;;;;;;;4.65;2.72;;;5.10;75.10;;;;;;5138860;27;20182;-65
2021/03/06 09:18:35;;;;;;;4.85;2.80;;;5.10;99.90;;;;;;5139373;27;20203;-64
2021/03/06 09:21:02;;;;;;;9.93;3.58;;;5.20;99.90;;;;;;5139190;27;20623;-65
2021/03/06 09:23:30;;;;;;;12.63;3.50;;;5.10;99.90;;;;;;5138279;27;20192;-69
2021/03/06 09:25:57;;;;;;;12.32;3.20;;;5.30;99.90;;;;;;5139119;27;20232;-68
2021/03/06 09:28:30;;;;;;;6.95;3.80;;;5.40;99.90;;;;;;5138420;27;20409;-68
2021/03/06 09:30:57;;;;;;;8.48;4.55;;;5.70;99.90;;;;;;5138631;27;20262;-69
2021/03/06 09:33:29;;;;;;;11.25;4.85;;;6.00;99.90;;;;;;5137425;27;20203;-65
2021/03/06 09:36:01;;;;;;;8.30;4.25;;;6.30;98.00;;;;;;5136829;27;20180;-62
2021/03/06 09:38:27;;;;;;;13.00;4.55;;;6.60;2.80;;;;;;5138222;27;20183;-63
2021/03/06 09:40:54;;;;;;;11.60;4.23;;;7.00;1.00;;;;;;5137580;27;20179;-61
2021/03/06 09:43:25;;;;;;;9.00;4.70;;;7.00;1.00;;;;;;5137376;27;20441;-62
2021/03/06 09:45:51;;;;;;;7.93;5.57;;;7.00;1.00;;;;;;5136899;27;20639;-69
2021/03/06 09:48:17;;;;;;;8.83;3.77;;;7.00;1.00;;;;;;5137188;27;20226;-69
2021/03/06 09:50:44;;;;;;;9.70;5.03;;;6.90;1.00;;;;;;5137998;27;20172;-64
2021/03/06 09:53:15;;;;;;;6.57;3.30;;;6.80;1.00;;;;;;5137621;27;20949;-65
2021/03/06 09:55:41;;;;;;;4.20;2.50;;;6.70;1.00;;;;;;5137867;27;20187;-67
2021/03/06 09:58:22;;;;;;;3.42;2.13;;;6.50;1.00;;;;;;5138501;27;20186;-66
2021/03/06 10:00:48;;;;;;;5.00;2.15;;;6.20;1.00;;;;;;5137413;27;20522;-66
2021/03/06 10:03:34;;;;;;;3.67;2.47;;;6.10;1.00;;;;;;5138226;27;20821;-66
2021/03/06 10:06:05;;;;;;;4.10;2.42;;;6.00;1.00;;;;;;5138403;27;20212;-64
2021/03/06 10:08:33;;;;;;;4.93;2.85;;;6.20;1.00;;;;;;5136745;27;20620;-70
2021/03/06 10:11:03;;;;;;;4.05;2.28;;;6.60;1.00;;;;;;5137442;27;20194;-65
2021/03/06 10:13:32;;;;;;;3.20;2.85;;;6.20;1.00;;;;;;5137528;27;20195;-64
2021/03/06 10:15:59;;;;;;;4.65;2.28;;;6.00;1.00;;;;;;5138506;27;20269;-69
2021/03/06 10:18:25;;;;;;;3.35;2.30;;;5.70;1.00;;;;;;5137473;27;20208;-69
2021/03/06 10:20:51;;;;;;;5.32;2.97;;;5.50;24.70;;;;;;5138490;27;20187;-66
2021/03/06 10:23:35;;;;;;;12.93;3.50;;;5.60;98.80;;;;;;5137967;27;20504;-66
2021/03/06 10:26:21;;;;;;;5.90;3.53;;;5.60;99.90;;;;;;5136787;27;20454;-66
2021/03/06 10:28:49;;;;;;;5.50;3.88;;;5.80;99.90;;;;;;5137284;27;20171;-63
2021/03/06 10:31:29;;;;;;;8.95;4.50;;;6.10;99.90;;;;;;5115100;28;20178;-65
2021/03/06 10:33:56;;;;;;;9.63;3.50;;;6.20;95.40;;;;;;5114659;28;20176;-64
2021/03/06 10:36:24;;;;;;;9.25;3.75;;;6.50;59.30;;;;;;5115109;28;20185;-64
2021/03/06 10:39:18;;;;;;;5.63;3.58;;;6.30;1.00;;;;;;5129607;27;20183;-72
2021/03/06 10:41:54;;;;;;;7.75;3.10;;;6.10;1.00;;;;;;5151118;27;20233;-70
2021/03/06 10:44:20;;;;;;;4.40;2.83;;;6.10;23.40;;;;;;5136789;27;20188;-67
2021/03/06 10:46:57;;;;;;;6.55;2.90;;;6.40;11.90;;;;;;5136816;27;20264;-63
2021/03/06 10:49:22;;;;;;;4.25;2.20;;;6.50;1.00;;;;;;5134985;27;20252;-63
2021/03/06 10:51:54;;;;;;;2.43;2.20;;;6.40;1.00;;;;;;5131355;27;20181;-65
2021/03/06 10:54:22;;;;;;;6.03;2.47;;;6.70;1.00;;;;;;5133242;27;20660;-63
2021/03/06 10:57:02;;;;;;;4.38;2.00;;;6.60;1.00;;;;;;5136287;27;20275;-70
2021/03/06 10:59:35;;;;;;;2.35;2.03;;;6.60;1.00;;;;;;5134887;27;20452;-65
2021/03/06 11:02:01;;;;;;;5.32;2.35;;;6.50;99.90;;;;;;5135855;27;20512;-66
2021/03/06 11:04:29;;;;;;;3.03;2.05;;;6.90;99.90;;;;;;5134686;27;20181;-63
2021/03/06 11:06:57;;;;;;;5.22;1.40;;;6.60;1.00;;;;;;5136247;27;20298;-65
2021/03/06 11:09:34;;;;;;;4.80;2.30;;;6.40;1.00;;;;;;5118400;27;20184;-63
2021/03/06 11:12:20;;;;;;;1.52;1.10;;;6.40;1.00;;;;;;5134533;27;20175;-62
2021/03/06 11:15:02;;;;;;;3.90;1.83;;;6.30;99.90;;;;;;5132499;27;20198;-63
2021/03/06 11:17:28;;;;;;;3.13;1.90;;;6.10;1.00;;;;;;5132843;27;20170;-65
2021/03/06 11:19:54;;;;;;;1.80;1.40;;;6.10;1.00;;;;;;5136201;27;20198;-63
2021/03/06 11:22:19;;;;;;;3.03;1.70;;;6.20;28.50;;;;;;5131698;27;20524;-68
2021/03/06 11:24:45;;;;;;;2.97;1.60;;;6.40;78.00;;;;;;5128418;27;20194;-65
2021/03/06 11:27:11;;;;;;;6.00;2.33;;;6.40;1.00;;;;;;5130660;27;20212;-64
2021/03/06 11:29:36;;;;;;;3.57;2.13;;;6.60;1.00;;;;;;5133945;27;20808;-64
2021/03/06 11:32:02;;;;;;;5.17;2.93;;;7.00;1.00;;;;;;5134227;27;20176;-65
2021/03/06 11:34:27;;;;;;;6.33;3.30;;;7.20;99.90;;;;;;5135114;27;20180;-64
2021/03/06 11:36:53;;;;;;;3.40;1.80;;;7.20;99.90;;;;;;5134066;27;20181;-68
2021/03/06 11:39:18;;;;;;;2.00;1.80;;;7.00;99.90;;;;;;5134906;27;20180;-64
2021/03/06 11:41:44;;;;;;;2.53;1.53;;;6.60;1.00;;;;;;5136576;27;20636;-64
2021/03/06 11:44:10;;;;;;;2.20;2.00;;;6.00;1.00;;;;;;5135121;27;20197;-67
2021/03/06 11:46:36;;;;;;;4.20;2.20;;;5.80;99.90;;;;;;5133899;27;20266;-67
2021/03/06 11:49:03;;;;;;;3.75;2.10;;;6.10;99.90;;;;;;5135628;27;20181;-64
2021/03/06 11:51:30;;;;;;;3.15;1.70;;;6.60;99.90;;;;;;5130750;27;20180;-67
2021/03/06 11:53:56;;;;;;;2.72;1.92;;;7.20;99.90;;;;;;5134869;27;20235;-63
2021/03/06 11:56:21;;;;;;;6.40;2.60;;;6.90;1.00;;;;;;5134208;27;20540;-62
2021/03/06 11:58:47;;;;;;;5.90;2.43;;;7.00;1.00;;;;;;5135695;27;20178;-66
2021/03/06 12:01:12;;;;;;;4.00;1.73;;;7.20;99.90;;;;;;5133667;27;20692;-63
2021/03/06 12:03:38;;;;;;;4.90;2.97;;;7.80;1.00;;;;;;5128251;27;20183;-63
2021/03/06 12:06:04;;;;;;;3.80;2.30;;;7.80;1.00;;;;;;5127826;27;20555;-67
2021/03/06 12:08:29;;;;;;;4.60;1.63;;;7.70;99.90;;;;;;5126691;27;20637;-64
2021/03/06 12:10:55;;;;;;;1.80;1.50;;;7.20;1.00;;;;;;5132756;27;20752;-67
2021/03/06 12:13:20;;;;;;;1.37;1.27;;;7.40;1.00;;;;;;5134987;28;20282;-66
2021/03/06 12:15:46;;;;;;;2.00;1.40;;;7.10;99.90;;;;;;5129097;28;20251;-62
2021/03/06 12:18:12;;;;;;;1.60;1.50;;;7.00;1.00;;;;;;5135132;28;20181;-66
2021/03/06 12:20:37;;;;;;;8.23;2.70;;;7.00;1.00;;;;;;5134785;28;20674;-67
2021/03/06 12:23:03;;;;;;;4.70;1.00;;;7.00;99.90;;;;;;5135650;28;20498;-67
2021/03/06 12:25:29;;;;;;;1.93;1.00;;;7.20;1.00;;;;;;5137123;27;20204;-67
2021/03/06 12:27:54;;;;;;;6.13;1.57;;;7.10;99.90;;;;;;5139728;27;20230;-68
2021/03/06 12:30:20;;;;;;;2.73;1.00;;;6.90;99.90;;;;;;5139135;27;20620;-65
2021/03/06 12:32:48;;;;;;;2.10;1.20;;;7.00;99.90;;;;;;5135445;27;20636;-64
2021/03/06 12:35:15;;;;;;;1.95;1.20;;;7.20;1.00;;;;;;5138971;27;20195;-65
2021/03/06 12:37:41;;;;;;;4.00;1.30;;;7.30;99.90;;;;;;5139393;27;20294;-63
2021/03/06 12:40:07;;;;;;;4.20;1.63;;;7.60;99.90;;;;;;5136656;27;20251;-65
2021/03/06 12:42:37;;;;;;;2.50;1.60;;;7.50;1.00;;;;;;5134634;27;20430;-65
2021/03/06 12:45:07;;;;;;;3.50;1.60;;;7.20;1.00;;;;;;5139726;27;20224;-65
2021/03/06 12:47:33;;;;;;;1.80;0.98;;;6.60;1.00;;;;;;5137122;27;20199;-65
2021/03/06 12:50:02;;;;;;;1.93;1.27;;;6.40;99.90;;;;;;5136889;27;20513;-65
2021/03/06 12:52:27;;;;;;;2.10;1.27;;;6.50;1.00;;;;;;5135239;27;20544;-66
2021/03/06 12:54:53;;;;;;;5.13;1.50;;;6.50;1.00;;;;;;5130270;27;20256;-63
2021/03/06 12:57:19;;;;;;;4.97;1.27;;;6.70;1.00;;;;;;5136964;27;20185;-63
2021/03/06 12:59:44;;;;;;;4.90;1.97;;;6.90;99.90;;;;;;5135705;27;20191;-62
2021/03/06 13:02:10;;;;;;;5.90;1.30;;;7.30;51.10;;;;;;5135600;27;20541;-64
2021/03/06 13:04:35;;;;;;;4.30;1.50;;;7.50;99.90;;;;;;5138206;27;20206;-62
2021/03/06 13:07:01;;;;;;;3.40;1.23;;;7.10;99.90;;;;;;5139053;27;20201;-63
2021/03/06 13:09:27;;;;;;;2.70;1.30;;;7.10;99.90;;;;;;5138826;27;20183;-63
2021/03/06 13:11:52;;;;;;;2.37;1.23;;;7.10;1.00;;;;;;5138853;27;20234;-66
2021/03/06 13:14:18;;;;;;;7.73;1.53;;;7.00;1.00;;;;;;5133860;27;20187;-65
2021/03/06 13:16:43;;;;;;;2.23;1.63;;;6.70;99.90;;;;;;5133863;27;20216;-66